createdAt,value
2022-10-18T00:02:00.836Z,57.44
2022-10-18T00:04:30.498Z,57.65
2022-10-18T00:06:58.946Z,57.58
2022-10-18T00:09:27.740Z,57.68
2022-10-18T00:11:56.347Z,57.83
2022-10-18T00:14:24.554Z,57.65
2022-10-18T00:16:52.684Z,57.61
2022-10-18T00:19:22.845Z,57.48
2022-10-18T00:21:54.203Z,57.48
2022-10-18T00:24:22.321Z,57.49
2022-10-18T00:26:50.531Z,57.65
2022-10-18T00:29:18.721Z,57.63
2022-10-18T00:31:46.876Z,57.47
2022-10-18T00:34:17.170Z,57.35
2022-10-18T00:36:46.039Z,57.71
2022-10-18T00:39:17.787Z,57.35
2022-10-18T00:41:46.686Z,57.54
2022-10-18T00:44:51.954Z,57.72
2022-10-18T00:47:21.320Z,57.58
2022-10-18T00:49:53.548Z,57.59
2022-10-18T00:52:25.334Z,57.52
2022-10-18T00:54:56.900Z,57.45
2022-10-18T00:57:26.076Z,57.34
2022-10-18T00:59:55.143Z,57.40
2022-10-18T01:02:23.806Z,57.57
2022-10-18T01:04:52.058Z,57.32
2022-10-18T01:07:33.357Z,57.67
2022-10-18T01:10:17.876Z,57.48
2022-10-18T01:12:56.396Z,57.61
2022-10-18T01:15:29.131Z,57.49
2022-10-18T01:18:04.666Z,57.58
2022-10-18T01:21:16.670Z,57.48
2022-10-18T01:24:12.745Z,57.68
2022-10-18T01:27:10.906Z,57.61
2022-10-18T01:29:51.967Z,57.59
2022-10-18T01:32:24.583Z,57.35
2022-10-18T01:34:57.313Z,57.52
2022-10-18T01:37:26.644Z,57.46
2022-10-18T01:39:58.331Z,57.38
2022-10-18T01:42:27.198Z,57.68
2022-10-18T01:44:56.328Z,57.65
2022-10-18T01:47:26.843Z,57.55
2022-10-18T01:50:00.306Z,57.71
2022-10-18T01:52:28.651Z,57.35
2022-10-18T01:54:58.246Z,57.53
2022-10-18T01:57:32.193Z,57.43
2022-10-18T02:00:03.348Z,57.35
2022-10-18T02:02:44.709Z,57.70
2022-10-18T02:05:21.254Z,57.57
2022-10-18T02:08:05.672Z,57.44
2022-10-18T02:10:45.967Z,57.56
2022-10-18T02:13:18.567Z,57.47
2022-10-18T02:15:49.799Z,57.63
2022-10-18T02:18:23.512Z,57.46
2022-10-18T02:20:53.374Z,57.76
2022-10-18T02:23:26.232Z,57.40
2022-10-18T02:25:55.017Z,57.38
2022-10-18T02:31:05.761Z,57.51
2022-10-18T02:33:39.953Z,57.51
2022-10-18T02:36:14.492Z,57.72
2022-10-18T02:38:43.804Z,57.40
2022-10-18T02:41:11.999Z,57.60
2022-10-18T02:43:40.200Z,57.66
2022-10-18T02:46:08.637Z,57.45
2022-10-18T02:48:38.323Z,57.42
2022-10-18T02:51:06.621Z,57.41
2022-10-18T02:53:35.231Z,57.64
2022-10-18T02:56:03.764Z,57.50
2022-10-18T02:58:32.019Z,57.37
2022-10-18T03:01:00.155Z,57.66
2022-10-18T03:03:28.290Z,57.46
2022-10-18T03:05:57.909Z,57.45
2022-10-18T03:08:26.271Z,57.53
2022-10-18T03:10:54.516Z,57.58
2022-10-18T03:13:22.840Z,57.67
2022-10-18T03:15:51.024Z,57.41
2022-10-18T03:18:19.281Z,57.59
2022-10-18T03:20:47.502Z,57.40
2022-10-18T03:23:17.054Z,57.34
2022-10-18T03:25:46.477Z,57.50
2022-10-18T03:28:14.685Z,57.44
2022-10-18T03:30:42.759Z,57.39
2022-10-18T03:33:11.028Z,57.54
2022-10-18T03:35:39.251Z,57.49
2022-10-18T03:38:07.545Z,57.56
2022-10-18T03:40:37.308Z,57.30
2022-10-18T03:43:05.472Z,57.59
2022-10-18T03:45:35.050Z,57.56
2022-10-18T03:48:05.280Z,57.31
2022-10-18T03:50:34.857Z,57.48
2022-10-18T03:53:03.555Z,57.44
2022-10-18T03:55:32.344Z,57.72
2022-10-18T03:58:04.966Z,57.52
2022-10-18T04:00:40.190Z,57.84
2022-10-18T04:03:12.168Z,57.83
2022-10-18T04:05:41.256Z,57.68
2022-10-18T04:08:09.570Z,57.78
2022-10-18T04:10:41.756Z,57.58
2022-10-18T04:13:12.046Z,57.72
2022-10-18T04:15:41.196Z,57.87
2022-10-18T04:18:11.422Z,57.89
2022-10-18T04:20:39.881Z,57.93
2022-10-18T04:23:08.804Z,57.67
2022-10-18T04:25:39.610Z,57.68
2022-10-18T04:28:09.793Z,57.68
2022-10-18T04:30:39.725Z,57.97
2022-10-18T04:33:09.190Z,57.67
2022-10-18T04:35:39.146Z,57.75
2022-10-18T04:38:07.763Z,57.78
2022-10-18T04:40:37.098Z,57.76
2022-10-18T04:43:05.410Z,57.91
2022-10-18T04:45:35.441Z,57.69
2022-10-18T04:48:05.896Z,57.77
2022-10-18T04:50:34.676Z,57.79
2022-10-18T04:53:02.868Z,57.86
2022-10-18T04:55:31.350Z,57.69
2022-10-18T04:57:59.944Z,57.77
2022-10-18T05:00:28.163Z,57.74
2022-10-18T05:03:00.457Z,58.01
2022-10-18T05:05:50.039Z,57.75
2022-10-18T05:08:18.472Z,57.87
2022-10-18T05:10:46.750Z,57.81
2022-10-18T05:13:18.011Z,57.72
2022-10-18T05:15:47.880Z,57.72
2022-10-18T05:18:16.044Z,57.64
2022-10-18T05:20:45.799Z,57.74
2022-10-18T05:23:18.617Z,57.97
2022-10-18T05:25:46.871Z,57.93
2022-10-18T05:28:38.712Z,57.95
2022-10-18T05:31:08.316Z,57.67
2022-10-18T05:33:36.537Z,57.63
2022-10-18T05:36:13.472Z,57.98
2022-10-18T05:38:53.562Z,58.01
2022-10-18T05:41:23.214Z,57.94
2022-10-18T05:43:52.848Z,57.86
2022-10-18T05:46:22.332Z,57.76
2022-10-18T05:48:53.837Z,57.99
2022-10-18T05:51:24.193Z,57.95
2022-10-18T05:53:53.437Z,57.70
2022-10-18T05:56:21.671Z,57.89
2022-10-18T05:59:10.355Z,57.82
2022-10-18T06:01:38.709Z,57.77
2022-10-18T06:04:08.527Z,58.17
2022-10-18T06:06:40.646Z,57.90
2022-10-18T06:09:13.147Z,57.86
2022-10-18T06:11:42.817Z,58.04
2022-10-18T06:14:11.629Z,58.11
2022-10-18T06:16:39.849Z,58.14
2022-10-18T06:19:08.640Z,57.81
2022-10-18T06:21:38.935Z,57.91
2022-10-18T06:24:08.936Z,58.09
2022-10-18T06:26:38.194Z,58.14
2022-10-18T06:29:06.928Z,57.97
2022-10-18T06:31:37.384Z,58.06
2022-10-18T06:34:05.968Z,58.04
2022-10-18T06:36:35.708Z,57.84
2022-10-18T06:39:18.057Z,58.17
2022-10-18T06:41:48.219Z,58.04
2022-10-18T06:44:17.751Z,57.87
2022-10-18T06:46:48.683Z,57.97
2022-10-18T06:49:19.257Z,57.75
2022-10-18T06:51:48.097Z,58.11
2022-10-18T06:54:21.192Z,58.25
2022-10-18T06:56:49.306Z,57.93
2022-10-18T06:59:19.775Z,58.18
2022-10-18T07:01:51.092Z,58.19
2022-10-18T07:04:19.427Z,58.05
2022-10-18T07:06:50.417Z,58.30
2022-10-18T07:09:22.896Z,58.10
2022-10-18T07:11:52.896Z,58.00
2022-10-18T07:14:26.923Z,58.26
2022-10-18T07:17:01.560Z,58.08
2022-10-18T07:19:33.968Z,58.24
2022-10-18T07:22:02.853Z,58.09
2022-10-18T07:27:12.120Z,58.10
2022-10-18T07:29:41.808Z,58.08
2022-10-18T07:32:09.960Z,58.21
2022-10-18T07:34:48.947Z,58.27
2022-10-18T07:37:25.413Z,58.10
2022-10-18T07:39:57.560Z,58.22
2022-10-18T07:42:25.808Z,58.20
2022-10-18T07:45:10.501Z,58.49
2022-10-18T07:47:38.867Z,58.20
2022-10-18T07:50:08.790Z,58.26
2022-10-18T07:52:38.425Z,57.93
2022-10-18T07:55:08.905Z,58.19
2022-10-18T07:57:39.909Z,57.92
2022-10-18T08:00:09.982Z,58.17
2022-10-18T08:02:38.986Z,58.13
2022-10-18T08:05:08.015Z,57.98
2022-10-18T08:07:36.228Z,58.04
2022-10-18T08:10:05.429Z,58.25
2022-10-18T08:12:34.997Z,58.08
2022-10-18T08:15:08.159Z,57.98
2022-10-18T08:17:43.766Z,57.85
2022-10-18T08:20:26.523Z,58.08
2022-10-18T08:23:00.436Z,58.11
2022-10-18T08:25:29.178Z,57.92
2022-10-18T08:27:59.007Z,58.22
2022-10-18T08:30:27.654Z,58.02
2022-10-18T08:32:55.954Z,58.29
2022-10-18T08:35:24.263Z,58.17
2022-10-18T08:37:52.450Z,58.09
2022-10-18T08:40:21.131Z,58.08
2022-10-18T08:43:08.479Z,58.33
2022-10-18T08:45:46.255Z,58.37
2022-10-18T08:48:22.985Z,58.39
2022-10-18T08:50:53.047Z,58.09
2022-10-18T08:53:28.655Z,58.15
2022-10-18T08:56:03.919Z,58.15
2022-10-18T08:58:35.046Z,58.31
2022-10-18T09:01:16.065Z,58.03
2022-10-18T09:04:02.631Z,58.36
2022-10-18T09:06:37.249Z,58.20
2022-10-18T09:09:22.234Z,58.17
2022-10-18T09:12:02.101Z,58.08
2022-10-18T09:15:04.464Z,58.45
2022-10-18T09:17:48.622Z,58.32
2022-10-18T09:20:26.587Z,58.03
2022-10-18T09:23:00.337Z,58.20
2022-10-18T09:25:37.984Z,58.08
2022-10-18T09:28:18.293Z,58.31
2022-10-18T09:30:59.644Z,58.00
2022-10-18T09:33:42.099Z,58.09
2022-10-18T09:36:12.503Z,57.99
2022-10-18T09:38:47.953Z,57.99
2022-10-18T09:41:21.692Z,58.22
2022-10-18T09:43:56.553Z,57.95
2022-10-18T09:46:32.743Z,58.13
2022-10-18T09:49:05.790Z,58.05
2022-10-18T09:51:39.017Z,58.22
2022-10-18T09:54:22.299Z,58.04
2022-10-18T09:56:53.634Z,57.93
2022-10-18T09:59:43.399Z,57.97
2022-10-18T10:02:18.065Z,58.18
2022-10-18T10:04:47.158Z,58.12
2022-10-18T10:07:19.397Z,57.87
2022-10-18T10:09:50.908Z,58.09
2022-10-18T10:12:33.210Z,58.36
2022-10-18T10:15:18.822Z,57.95
2022-10-18T10:17:58.100Z,58.12
2022-10-18T10:20:31.749Z,57.76
2022-10-18T10:23:12.532Z,58.23
2022-10-18T10:25:43.624Z,57.92
2022-10-18T10:28:18.045Z,58.15
2022-10-18T10:30:46.323Z,57.96
2022-10-18T10:33:35.625Z,57.82
2022-10-18T10:36:07.103Z,58.14
2022-10-18T10:38:36.254Z,57.89
2022-10-18T10:41:05.838Z,58.13
2022-10-18T10:43:39.430Z,58.12
2022-10-18T10:46:12.315Z,57.96
2022-10-18T10:49:04.207Z,58.19
2022-10-18T10:51:41.546Z,58.44
2022-10-18T10:54:20.954Z,59.19
2022-10-18T10:57:01.459Z,59.41
2022-10-18T10:59:32.209Z,58.99
2022-10-18T11:02:22.849Z,59.65
2022-10-18T11:04:53.437Z,59.12
2022-10-18T11:07:27.076Z,59.04
2022-10-18T11:10:01.389Z,58.71
2022-10-18T11:12:34.959Z,58.78
2022-10-18T11:15:15.893Z,59.06
2022-10-18T11:17:48.980Z,58.95
2022-10-18T11:20:28.959Z,59.17
2022-10-18T11:23:02.803Z,58.78
2022-10-18T11:25:50.066Z,58.86
2022-10-18T11:28:30.040Z,58.97
2022-10-18T11:31:15.642Z,59.00
2022-10-18T11:34:08.653Z,58.93
2022-10-18T11:36:56.401Z,58.67
2022-10-18T11:39:47.548Z,58.68
2022-10-18T11:42:35.679Z,58.83
2022-10-18T11:45:23.122Z,58.99
2022-10-18T11:48:04.022Z,58.90
2022-10-18T11:50:44.788Z,59.25
2022-10-18T11:53:29.083Z,59.07
2022-10-18T11:56:10.873Z,59.39
2022-10-18T11:58:57.404Z,59.43
2022-10-18T12:01:33.825Z,58.81
2022-10-18T12:04:09.388Z,58.96
2022-10-18T12:06:41.069Z,58.97
2022-10-18T12:09:18.486Z,59.04
2022-10-18T12:11:55.780Z,59.25
2022-10-18T12:14:28.362Z,58.78
2022-10-18T12:17:28.024Z,58.74
2022-10-18T12:20:23.035Z,59.18
2022-10-18T12:22:57.536Z,59.07
2022-10-18T12:25:30.070Z,58.88
2022-10-18T12:28:04.206Z,59.06
2022-10-18T12:30:43.311Z,59.16
2022-10-18T12:33:27.884Z,59.13
2022-10-18T12:36:22.938Z,59.56
2022-10-18T12:38:55.441Z,58.96
2022-10-18T12:41:28.911Z,59.17
2022-10-18T12:44:02.498Z,58.93
2022-10-18T12:46:45.772Z,58.96
2022-10-18T12:49:19.873Z,58.69
2022-10-18T12:52:05.656Z,59.08
2022-10-18T12:54:36.758Z,59.14
2022-10-18T12:57:08.278Z,59.11
2022-10-18T12:59:45.444Z,59.04
2022-10-18T13:02:31.870Z,59.19
2022-10-18T13:05:42.038Z,59.08
2022-10-18T13:08:43.442Z,59.20
2022-10-18T13:11:36.102Z,59.12
2022-10-18T13:14:29.978Z,59.13
2022-10-18T13:17:08.929Z,58.78
2022-10-18T13:19:58.061Z,59.04
2022-10-18T13:22:58.331Z,59.31
2022-10-18T13:25:34.348Z,58.85
2022-10-18T13:28:17.400Z,58.79
2022-10-18T13:30:56.637Z,59.08
2022-10-18T13:33:32.890Z,58.77
2022-10-18T13:36:24.913Z,59.10
2022-10-18T13:39:27.685Z,59.07
2022-10-18T13:42:32.992Z,59.18
2022-10-18T13:45:39.333Z,59.06
2022-10-18T13:48:43.701Z,59.02
2022-10-18T13:51:36.414Z,58.87
2022-10-18T13:54:18.886Z,58.79
2022-10-18T13:56:59.073Z,58.94
2022-10-18T14:00:00.251Z,58.97
2022-10-18T14:03:00.228Z,58.82
2022-10-18T14:05:52.326Z,59.08
2022-10-18T14:08:29.610Z,58.80
2022-10-18T14:11:05.748Z,58.95
2022-10-18T14:13:43.974Z,59.00
2022-10-18T14:16:28.347Z,58.95
2022-10-18T14:19:05.912Z,58.87
2022-10-18T14:21:43.611Z,58.78
2022-10-18T14:24:23.350Z,58.63
2022-10-18T14:27:13.208Z,58.91
2022-10-18T14:30:14.519Z,58.73
2022-10-18T14:32:50.370Z,58.69
2022-10-18T14:35:32.656Z,58.74
2022-10-18T14:38:02.626Z,58.47
2022-10-18T14:40:45.571Z,59.06
2022-10-18T14:43:21.038Z,58.70
2022-10-18T14:45:49.538Z,58.74
2022-10-18T14:48:23.717Z,58.59
2022-10-18T14:51:00.572Z,58.63
2022-10-18T14:53:35.069Z,58.68
2022-10-18T14:56:22.125Z,58.75
2022-10-18T14:58:53.118Z,58.66
2022-10-18T15:01:26.701Z,58.68
2022-10-18T15:04:02.951Z,58.91
2022-10-18T15:06:37.192Z,58.67
2022-10-18T15:09:09.984Z,58.60
2022-10-18T15:11:42.655Z,58.66
2022-10-18T15:14:16.140Z,58.55
2022-10-18T15:16:44.670Z,58.57
2022-10-18T15:19:33.925Z,58.85
2022-10-18T15:25:27.959Z,58.82
2022-10-18T15:28:04.199Z,58.72
2022-10-18T15:30:43.069Z,58.33
2022-10-18T15:33:23.585Z,58.69
2022-10-18T15:35:54.150Z,58.43
2022-10-18T15:38:28.728Z,58.39
2022-10-18T15:41:05.026Z,58.67
2022-10-18T15:43:41.368Z,58.46
2022-10-18T15:46:32.253Z,58.31
2022-10-18T15:49:40.698Z,58.73
2022-10-18T15:52:40.765Z,58.63
2022-10-18T15:55:49.229Z,58.54
2022-10-18T15:58:26.574Z,58.47
2022-10-18T16:01:01.167Z,58.47
2022-10-18T16:03:30.611Z,58.27
2022-10-18T16:06:02.377Z,58.19
2022-10-18T16:08:32.582Z,58.22
2022-10-18T16:11:01.333Z,58.22
2022-10-18T16:13:29.583Z,58.46
2022-10-18T16:16:02.478Z,58.49
2022-10-18T16:18:31.105Z,58.33
2022-10-18T16:21:02.128Z,58.27
2022-10-18T16:23:32.012Z,58.36
2022-10-18T16:26:01.269Z,58.45
2022-10-18T16:28:31.954Z,58.48
2022-10-18T16:31:09.480Z,58.31
2022-10-18T16:33:39.518Z,58.32
2022-10-18T16:36:09.193Z,58.36
2022-10-18T16:38:43.688Z,58.07
2022-10-18T16:41:13.600Z,58.18
2022-10-18T16:43:43.310Z,58.13
2022-10-18T16:46:18.879Z,57.98
2022-10-18T16:48:54.745Z,58.15
2022-10-18T16:51:27.134Z,58.33
2022-10-18T16:53:56.120Z,58.07
2022-10-18T16:56:28.243Z,58.07
2022-10-18T16:58:58.122Z,57.98
2022-10-18T17:01:28.539Z,58.04
2022-10-18T17:03:57.669Z,57.94
2022-10-18T17:06:30.310Z,58.32
2022-10-18T17:09:02.293Z,57.82
2022-10-18T17:11:35.541Z,58.08
2022-10-18T17:14:04.601Z,57.85
2022-10-18T17:16:39.425Z,58.19
2022-10-18T17:19:11.912Z,57.89
2022-10-18T17:21:45.014Z,57.85
2022-10-18T17:24:13.563Z,58.02
2022-10-18T17:26:42.580Z,57.96
2022-10-18T17:29:11.465Z,57.99
2022-10-18T17:31:44.539Z,57.82
2022-10-18T17:34:14.789Z,57.92
2022-10-18T17:36:47.942Z,58.05
2022-10-18T17:39:18.101Z,57.80
2022-10-18T17:41:46.294Z,57.86
2022-10-18T17:44:16.467Z,58.08
2022-10-18T17:46:46.468Z,58.02
2022-10-18T17:49:15.610Z,58.16
2022-10-18T17:51:45.593Z,57.79
2022-10-18T17:54:13.987Z,57.83
2022-10-18T17:56:56.278Z,58.08
2022-10-18T17:59:24.595Z,57.96
2022-10-18T18:01:54.382Z,57.95
2022-10-18T18:04:24.122Z,58.02
2022-10-18T18:06:53.994Z,57.95
2022-10-18T18:09:22.534Z,57.92
2022-10-18T18:11:52.314Z,58.04
2022-10-18T18:14:21.404Z,57.74
2022-10-18T18:16:55.094Z,57.99
2022-10-18T18:19:28.534Z,57.85
2022-10-18T18:22:02.544Z,58.02
2022-10-18T18:24:32.257Z,57.80
2022-10-18T18:27:13.103Z,58.04
2022-10-18T18:29:42.782Z,58.13
2022-10-18T18:32:13.680Z,57.87
2022-10-18T18:34:45.758Z,58.08
2022-10-18T18:37:15.282Z,58.20
2022-10-18T18:39:46.926Z,57.97
2022-10-18T18:42:19.119Z,58.13
2022-10-18T18:44:47.527Z,57.83
2022-10-18T18:47:21.964Z,57.94
2022-10-18T18:49:52.845Z,57.90
2022-10-18T18:52:23.517Z,58.13
2022-10-18T18:54:51.804Z,57.97
2022-10-18T18:57:20.216Z,57.92
2022-10-18T18:59:50.235Z,57.84
2022-10-18T19:02:23.461Z,57.88
2022-10-18T19:04:55.552Z,57.99
2022-10-18T19:07:25.243Z,57.81
2022-10-18T19:09:58.970Z,57.78
2022-10-18T19:12:31.592Z,58.01
2022-10-18T19:15:02.591Z,57.81
2022-10-18T19:17:32.698Z,58.03
2022-10-18T19:20:01.478Z,57.80
2022-10-18T19:22:29.632Z,57.92
2022-10-18T19:24:57.796Z,57.83
2022-10-18T19:27:27.206Z,57.95
2022-10-18T19:29:55.588Z,58.05
2022-10-18T19:32:24.046Z,57.69
2022-10-18T19:34:53.736Z,57.68
2022-10-18T19:37:22.438Z,57.63
2022-10-18T19:39:50.778Z,57.77
2022-10-18T19:42:22.704Z,57.49
2022-10-18T19:45:00.181Z,57.44
2022-10-18T19:47:28.595Z,57.51
2022-10-18T19:49:59.260Z,57.64
2022-10-18T19:52:28.552Z,57.67
2022-10-18T19:54:56.849Z,57.31
2022-10-18T19:57:26.183Z,57.34
2022-10-18T19:59:56.095Z,57.19
2022-10-18T20:02:25.038Z,57.26
2022-10-18T20:04:53.580Z,57.33
2022-10-18T20:07:23.256Z,57.06
2022-10-18T20:09:51.481Z,57.32
2022-10-18T20:12:21.781Z,57.12
2022-10-18T20:14:49.983Z,57.29
2022-10-18T20:17:18.155Z,57.33
2022-10-18T20:19:46.389Z,57.11
2022-10-18T20:22:14.559Z,56.93
2022-10-18T20:24:44.353Z,56.93
2022-10-18T20:27:12.513Z,56.93
2022-10-18T20:29:40.676Z,57.25
2022-10-18T20:32:10.710Z,56.86
2022-10-18T20:34:39.665Z,56.91
2022-10-18T20:37:08.198Z,56.88
2022-10-18T20:39:36.546Z,57.04
2022-10-18T20:42:06.165Z,57.01
2022-10-18T20:44:38.270Z,56.84
2022-10-18T20:47:06.410Z,56.98
2022-10-18T20:49:34.582Z,56.69
2022-10-18T20:52:02.902Z,57.02
2022-10-18T20:54:31.260Z,56.61
2022-10-18T20:56:59.428Z,56.86
2022-10-18T20:59:31.329Z,56.56
2022-10-18T21:01:59.493Z,56.55
2022-10-18T21:04:27.902Z,56.51
2022-10-18T21:06:56.080Z,56.55
2022-10-18T21:09:24.379Z,56.79
2022-10-18T21:11:53.958Z,56.69
2022-10-18T21:14:24.234Z,56.65
2022-10-18T21:16:54.267Z,56.42
2022-10-18T21:19:27.306Z,56.71
2022-10-18T21:21:57.921Z,56.50
2022-10-18T21:24:27.266Z,56.49
2022-10-18T21:26:55.843Z,56.65
2022-10-18T21:29:25.059Z,56.34
2022-10-18T21:31:59.418Z,56.63
2022-10-18T21:34:27.931Z,56.44
2022-10-18T21:36:56.199Z,56.52
2022-10-18T21:39:25.377Z,56.42
2022-10-18T21:41:53.745Z,56.35
2022-10-18T21:44:22.032Z,56.29
2022-10-18T21:46:50.923Z,56.44
2022-10-18T21:49:25.156Z,56.28
2022-10-18T21:51:54.646Z,56.33
2022-10-18T21:54:22.903Z,56.51
2022-10-18T21:56:51.765Z,56.46
2022-10-18T21:59:19.926Z,56.28
2022-10-18T22:01:48.186Z,56.45
2022-10-18T22:04:21.823Z,56.23
2022-10-18T22:06:50.480Z,56.23
2022-10-18T22:09:19.162Z,56.24
2022-10-18T22:11:49.315Z,56.02
2022-10-18T22:14:17.576Z,56.37
2022-10-18T22:16:45.802Z,56.12
2022-10-18T22:19:14.160Z,55.93
2022-10-18T22:21:43.772Z,56.42
2022-10-18T22:24:12.067Z,56.22
2022-10-18T22:26:41.492Z,56.05
2022-10-18T22:29:12.507Z,56.13
2022-10-18T22:31:43.529Z,56.22
2022-10-18T22:34:14.459Z,56.14
2022-10-18T22:36:44.572Z,55.82
2022-10-18T22:39:14.560Z,55.92
2022-10-18T22:41:43.114Z,56.11
2022-10-18T22:44:13.454Z,56.25
2022-10-18T22:46:41.947Z,55.98
2022-10-18T22:49:10.522Z,56.24
2022-10-18T22:51:39.055Z,56.01
2022-10-18T22:54:09.508Z,55.84
2022-10-18T22:56:37.816Z,55.74
2022-10-18T22:59:06.121Z,55.99
2022-10-18T23:01:34.359Z,55.65
2022-10-18T23:04:03.545Z,55.82
2022-10-18T23:06:34.480Z,55.80
2022-10-18T23:09:05.505Z,55.75
2022-10-18T23:11:36.323Z,55.93
2022-10-18T23:14:06.539Z,55.99
2022-10-18T23:16:34.865Z,55.75
2022-10-18T23:19:03.105Z,56.00
2022-10-18T23:21:31.276Z,55.97
2022-10-18T23:23:59.741Z,55.87
2022-10-18T23:26:29.142Z,55.80
2022-10-18T23:28:58.906Z,55.52
2022-10-18T23:31:28.581Z,55.53
2022-10-18T23:33:58.406Z,55.55
2022-10-18T23:36:27.413Z,55.57
2022-10-18T23:38:55.986Z,55.48
2022-10-18T23:41:24.737Z,55.55
2022-10-18T23:43:53.096Z,55.81
2022-10-18T23:46:23.192Z,55.56
2022-10-18T23:48:51.602Z,55.51
2022-10-18T23:51:20.269Z,55.46
2022-10-18T23:53:48.655Z,55.61
2022-10-18T23:56:18.014Z,55.43
2022-10-18T23:58:46.825Z,55.62
